Flight Track Log - Related Links

Times and Time Zones

All times are in EDT time to prevent confusion due to time zone crossing. See the EGF3681 flight status page for this flight to view local times or setup timezone preferences in your user account.

Time Position Orientation Groundspeed Altitude Reporting Facility
EDT Latitude Longitude Course Direction KTS MPH feet Rate Location/Type
Sat 12:25:41 AM 42.0000 -87.9500 323° Northwest 164 189 1,700  Level Chicago TRACON
Sat 12:26:35 AM 42.0333 -87.9833 323° Northwest 201 231 3,300 1,600 Climbing Chicago TRACON
Sat 12:27:41 AM 42.0833 -87.9667 14° North 244 281 4,900 1,381 Climbing Chicago TRACON
Sat 12:28:41 AM 42.1500 -87.9167 29° Northeast 263 303 6,200 1,706 Climbing Chicago TRACON
Sat 12:29:23 AM 42.1875 -87.8661 45° Northeast 258 297 7,800 1,981 Climbing Chicago Center
Sat 12:30:24 AM 42.1886 -87.7692 89° East 282 325 9,600 1,721 Climbing Chicago Center
Sat 12:31:25 AM 42.1522 -87.6658 115° Southeast 303 349 11,300 1,488 Climbing Chicago Center
Sat 12:32:25 AM 42.1139 -87.5558 115° Southeast 321 369 12,600 1,388 Climbing Chicago Center
Sat 12:33:26 AM 42.0667 -87.4436 120° Southeast 342 394 14,100 1,475 Climbing Chicago Center
Sat 12:34:27 AM 42.0125 -87.3319 123° Southeast 355 409 15,600 1,377 Climbing Chicago Center
Sat 12:35:28 AM 41.9592 -87.2172 122° Southeast 361 415 16,900 1,525 Climbing Chicago Center
Sat 12:36:29 AM 41.9047 -87.1028 123° Southeast 364 419 18,700 1,672 Climbing Chicago Center
Sat 12:37:30 AM 41.8508 -86.9875 122° Southeast 365 420 20,300 1,636 Climbing Chicago Center
Sat 12:38:30 AM 41.7858 -86.8847 130° Southeast 362 417 22,000 1,339 Climbing Chicago Center
Sat 12:39:31 AM 41.7144 -86.7844 134° Southeast 369 425 23,000 492 Climbing Chicago Center
Sat 12:40:32 AM 41.6331 -86.6628 132° Southeast 398 458 23,000  Level Chicago Center
Sat 12:41:33 AM 41.5494 -86.5408 132° Southeast 437 503 23,000  Level Chicago Center
Sat 12:42:33 AM 41.4633 -86.4164 133° Southeast 456 525 23,000  Level Chicago Center
Sat 12:43:34 AM 41.3756 -86.2883 132° Southeast 467 537 23,000  Level Chicago Center
Sat 12:44:34 AM 41.2892 -86.1636 133° Southeast 462 532 23,000  Level Chicago Center
Sat 12:45:35 AM 41.2042 -86.0397 132° Southeast 459 528 23,000  Level Chicago Center
Sat 12:46:36 AM 41.1194 -85.9183 133° Southeast 454 522 23,000 -149 Level Chicago Center
Sat 12:47:36 AM 41.0342 -85.7958 133° Southeast 455 524 22,700 -1,587 Descending Chicago Center
Sat 12:48:37 AM 40.9531 -85.6800 133° Southeast 437 503 19,800 -3,322 Descending Chicago Center
Sat 12:49:37 AM 40.8594 -85.5481 133° Southeast 417 480 16,000 -3,421 Descending Chicago Center
Sat 12:50:38 AM 40.7842 -85.4408 133° Southeast 404 465 12,900 -2,459 Descending Chicago Center
Sat 12:51:39 AM 40.7086 -85.3358 133° Southeast 398 458 11,000 -942 Descending Chicago Center
Sat 12:52:39 AM 40.6414 -85.2361 132° Southeast 396 456 11,000  Level Chicago Center
Sat 12:53:40 AM 40.5675 -85.1347 134° Southeast 387 445 11,000  Level Chicago Center
Sat 12:54:29 AM 40.5058 -85.0503 134° Southeast 393 452 11,000  Level Indianapolis Center
Sat 12:55:30 AM 40.4308 -84.9461 133° Southeast 393 452 11,000 -50 Level Indianapolis Center
Sat 12:56:30 AM 40.3497 -84.8358 134° Southeast 392 451 10,900 -595 Descending Indianapolis Center
Sat 12:57:31 AM 40.2875 -84.7475 133° Southeast 334 384 9,800 -1,770 Descending Indianapolis Center
Sat 12:58:32 AM 40.2314 -84.6686 133° Southeast 300 345 7,300 -2,380 Descending Indianapolis Center
Sat 12:59:32 AM 40.1742 -84.5919 134° Southeast 293 337 5,000 -1,686 Descending Indianapolis Center
Sat 01:00:33 AM 40.1222 -84.5206 134° Southeast 278 320 3,900 -984 Descending Indianapolis Center
Sat 01:01:34 AM 40.0681 -84.4469 134° Southeast 276 318 3,000 -496 Descending Indianapolis Center
Sat 01:02:34 AM 40.0147 -84.3719 133° Southeast 278 320 2,900 -50 Descending Indianapolis Center
Sat 01:03:35 AM 40.0094 -84.2789 94° East 272 313 2,900 -347 Level Indianapolis Center
Sat 01:04:35 AM 39.9861 -84.2144 115° Southeast 223 257 2,200 -680 Descending Indianapolis Center
Sat 01:05:12 AM 39.9533 -84.2136 179° South 157 181 1,800 -649 Descending Indianapolis Center

Login

Don't have an account? Register now (free) for customized features, flight alerts, and more!